sensor_id;sensor_type;location;lat;lon;timestamp;temperature;humidity
11764;DHT22;5939;56.522;14.950;2022-10-29T00:01:00;12.70;99.90
11764;DHT22;5939;56.522;14.950;2022-10-29T00:03:26;12.80;99.90
11764;DHT22;5939;56.522;14.950;2022-10-29T00:08:21;12.70;99.90
11764;DHT22;5939;56.522;14.950;2022-10-29T00:10:46;12.80;99.90
11764;DHT22;5939;56.522;14.950;2022-10-29T00:13:12;12.80;99.90
11764;DHT22;5939;56.522;14.950;2022-10-29T00:15:39;12.70;99.90
11764;DHT22;5939;56.522;14.950;2022-10-29T00:18:05;12.70;99.90
11764;DHT22;5939;56.522;14.950;2022-10-29T00:20:31;12.70;99.90
11764;DHT22;5939;56.522;14.950;2022-10-29T00:22:56;12.80;99.90
11764;DHT22;5939;56.522;14.950;2022-10-29T00:25:22;12.70;99.90
11764;DHT22;5939;56.522;14.950;2022-10-29T00:27:47;12.80;99.90
11764;DHT22;5939;56.522;14.950;2022-10-29T00:30:13;12.70;99.90
11764;DHT22;5939;56.522;14.950;2022-10-29T00:32:39;12.80;99.90
11764;DHT22;5939;56.522;14.950;2022-10-29T00:35:05;12.80;99.90
11764;DHT22;5939;56.522;14.950;2022-10-29T00:37:30;12.80;99.90
11764;DHT22;5939;56.522;14.950;2022-10-29T00:39:56;12.80;99.90
11764;DHT22;5939;56.522;14.950;2022-10-29T00:42:21;12.80;99.90
11764;DHT22;5939;56.522;14.950;2022-10-29T00:44:47;12.80;99.90
11764;DHT22;5939;56.522;14.950;2022-10-29T00:47:28;12.80;99.90
11764;DHT22;5939;56.522;14.950;2022-10-29T00:50:03;12.80;99.90
11764;DHT22;5939;56.522;14.950;2022-10-29T00:52:32;12.80;99.90
11764;DHT22;5939;56.522;14.950;2022-10-29T00:55:02;12.80;99.90
11764;DHT22;5939;56.522;14.950;2022-10-29T00:57:37;12.80;99.90
11764;DHT22;5939;56.522;14.950;2022-10-29T01:00:04;12.80;99.90
11764;DHT22;5939;56.522;14.950;2022-10-29T01:02:32;12.80;99.90
11764;DHT22;5939;56.522;14.950;2022-10-29T01:05:02;12.80;99.90
11764;DHT22;5939;56.522;14.950;2022-10-29T01:07:28;12.80;99.90
11764;DHT22;5939;56.522;14.950;2022-10-29T01:09:54;12.80;99.90
11764;DHT22;5939;56.522;14.950;2022-10-29T01:12:46;12.80;99.90
11764;DHT22;5939;56.522;14.950;2022-10-29T01:34:27;12.90;99.90
11764;DHT22;5939;56.522;14.950;2022-10-29T01:37:01;12.90;99.90
11764;DHT22;5939;56.522;14.950;2022-10-29T01:47:23;12.90;99.90
11764;DHT22;5939;56.522;14.950;2022-10-29T01:49:53;12.90;99.90
11764;DHT22;5939;56.522;14.950;2022-10-29T01:52:22;12.90;99.90
11764;DHT22;5939;56.522;14.950;2022-10-29T01:54:48;12.90;99.90
11764;DHT22;5939;56.522;14.950;2022-10-29T01:59:57;13.00;99.90
11764;DHT22;5939;56.522;14.950;2022-10-29T02:02:39;13.00;99.90
11764;DHT22;5939;56.522;14.950;2022-10-29T02:05:32;13.00;99.90
11764;DHT22;5939;56.522;14.950;2022-10-29T02:08:12;13.00;99.90
11764;DHT22;5939;56.522;14.950;2022-10-29T02:13:32;13.00;99.90
11764;DHT22;5939;56.522;14.950;2022-10-29T02:15:59;13.00;99.90
11764;DHT22;5939;56.522;14.950;2022-10-29T02:18:28;13.00;99.90
11764;DHT22;5939;56.522;14.950;2022-10-29T02:20:54;13.00;99.90
11764;DHT22;5939;56.522;14.950;2022-10-29T02:23:20;13.00;99.90
11764;DHT22;5939;56.522;14.950;2022-10-29T02:25:45;13.00;99.90
11764;DHT22;5939;56.522;14.950;2022-10-29T02:28:11;13.00;99.90
11764;DHT22;5939;56.522;14.950;2022-10-29T02:30:37;13.10;99.90
11764;DHT22;5939;56.522;14.950;2022-10-29T02:33:02;13.10;99.90
11764;DHT22;5939;56.522;14.950;2022-10-29T02:35:28;13.10;99.90
11764;DHT22;5939;56.522;14.950;2022-10-29T02:37:53;13.10;99.90
11764;DHT22;5939;56.522;14.950;2022-10-29T02:40:19;13.10;99.90
11764;DHT22;5939;56.522;14.950;2022-10-29T02:42:45;13.10;99.90
11764;DHT22;5939;56.522;14.950;2022-10-29T02:45:10;13.10;99.90
11764;DHT22;5939;56.522;14.950;2022-10-29T02:47:36;13.10;99.90
11764;DHT22;5939;56.522;14.950;2022-10-29T02:50:01;13.20;99.90
11764;DHT22;5939;56.522;14.950;2022-10-29T02:52:27;13.20;99.90
11764;DHT22;5939;56.522;14.950;2022-10-29T02:54:53;13.10;99.90
11764;DHT22;5939;56.522;14.950;2022-10-29T02:57:18;13.20;99.90
11764;DHT22;5939;56.522;14.950;2022-10-29T02:59:44;13.20;99.90
11764;DHT22;5939;56.522;14.950;2022-10-29T03:02:10;13.20;99.90
11764;DHT22;5939;56.522;14.950;2022-10-29T03:04:35;13.20;99.90
11764;DHT22;5939;56.522;14.950;2022-10-29T03:07:03;13.20;99.90
11764;DHT22;5939;56.522;14.950;2022-10-29T03:09:29;13.20;99.90
11764;DHT22;5939;56.522;14.950;2022-10-29T03:11:54;13.30;99.90
11764;DHT22;5939;56.522;14.950;2022-10-29T03:14:20;13.20;99.90
11764;DHT22;5939;56.522;14.950;2022-10-29T03:16:46;13.30;99.90
11764;DHT22;5939;56.522;14.950;2022-10-29T03:19:11;13.30;99.90
11764;DHT22;5939;56.522;14.950;2022-10-29T03:21:37;13.30;99.90
11764;DHT22;5939;56.522;14.950;2022-10-29T03:24:03;13.30;99.90
11764;DHT22;5939;56.522;14.950;2022-10-29T03:26:29;13.30;99.90
11764;DHT22;5939;56.522;14.950;2022-10-29T03:28:55;13.30;99.90
11764;DHT22;5939;56.522;14.950;2022-10-29T03:31:21;13.30;99.90
11764;DHT22;5939;56.522;14.950;2022-10-29T03:33:46;13.30;99.90
11764;DHT22;5939;56.522;14.950;2022-10-29T03:36:12;13.40;99.90
11764;DHT22;5939;56.522;14.950;2022-10-29T03:38:37;13.40;99.90
11764;DHT22;5939;56.522;14.950;2022-10-29T03:41:03;13.30;99.90
11764;DHT22;5939;56.522;14.950;2022-10-29T03:43:38;13.40;99.90
11764;DHT22;5939;56.522;14.950;2022-10-29T03:46:04;13.40;99.90
11764;DHT22;5939;56.522;14.950;2022-10-29T03:48:30;13.40;99.90
11764;DHT22;5939;56.522;14.950;2022-10-29T03:50:58;13.40;99.90
11764;DHT22;5939;56.522;14.950;2022-10-29T03:53:25;13.40;99.90
11764;DHT22;5939;56.522;14.950;2022-10-29T03:55:51;13.40;99.90
11764;DHT22;5939;56.522;14.950;2022-10-29T03:58:17;13.40;99.90
11764;DHT22;5939;56.522;14.950;2022-10-29T04:00:43;13.40;99.90
11764;DHT22;5939;56.522;14.950;2022-10-29T04:03:09;13.40;99.90
11764;DHT22;5939;56.522;14.950;2022-10-29T04:05:34;13.40;99.90
11764;DHT22;5939;56.522;14.950;2022-10-29T04:08:00;13.40;99.90
11764;DHT22;5939;56.522;14.950;2022-10-29T04:10:25;13.40;99.90
11764;DHT22;5939;56.522;14.950;2022-10-29T04:12:52;13.40;99.90
11764;DHT22;5939;56.522;14.950;2022-10-29T04:15:17;13.40;99.90
11764;DHT22;5939;56.522;14.950;2022-10-29T04:17:43;13.40;99.90
11764;DHT22;5939;56.522;14.950;2022-10-29T04:20:09;13.40;99.90
11764;DHT22;5939;56.522;14.950;2022-10-29T04:22:34;13.40;99.90
11764;DHT22;5939;56.522;14.950;2022-10-29T04:25:00;13.40;99.90
11764;DHT22;5939;56.522;14.950;2022-10-29T04:27:26;13.40;99.90
11764;DHT22;5939;56.522;14.950;2022-10-29T04:29:52;13.40;99.90
11764;DHT22;5939;56.522;14.950;2022-10-29T04:32:17;13.40;99.90
11764;DHT22;5939;56.522;14.950;2022-10-29T04:34:43;13.40;99.90
11764;DHT22;5939;56.522;14.950;2022-10-29T04:37:08;13.40;99.90
11764;DHT22;5939;56.522;14.950;2022-10-29T04:39:34;13.40;99.90
11764;DHT22;5939;56.522;14.950;2022-10-29T04:42:00;13.40;99.90
11764;DHT22;5939;56.522;14.950;2022-10-29T04:44:25;13.40;99.90
11764;DHT22;5939;56.522;14.950;2022-10-29T04:46:51;13.40;99.90
11764;DHT22;5939;56.522;14.950;2022-10-29T04:49:16;13.30;99.90
11764;DHT22;5939;56.522;14.950;2022-10-29T04:51:42;13.40;99.90
11764;DHT22;5939;56.522;14.950;2022-10-29T04:54:08;13.30;99.90
11764;DHT22;5939;56.522;14.950;2022-10-29T04:56:33;13.30;99.90
11764;DHT22;5939;56.522;14.950;2022-10-29T04:58:59;13.30;99.90
11764;DHT22;5939;56.522;14.950;2022-10-29T05:01:25;13.30;99.90
11764;DHT22;5939;56.522;14.950;2022-10-29T05:03:50;13.30;99.90
11764;DHT22;5939;56.522;14.950;2022-10-29T05:06:16;13.30;99.90
11764;DHT22;5939;56.522;14.950;2022-10-29T05:08:42;13.30;99.90
11764;DHT22;5939;56.522;14.950;2022-10-29T05:11:07;13.30;99.90
11764;DHT22;5939;56.522;14.950;2022-10-29T05:13:33;13.30;99.90
11764;DHT22;5939;56.522;14.950;2022-10-29T05:15:59;13.30;99.90
11764;DHT22;5939;56.522;14.950;2022-10-29T05:18:25;13.20;99.90
11764;DHT22;5939;56.522;14.950;2022-10-29T05:20:55;13.30;99.90
11764;DHT22;5939;56.522;14.950;2022-10-29T05:23:21;13.30;99.90
11764;DHT22;5939;56.522;14.950;2022-10-29T05:25:47;13.20;99.90
11764;DHT22;5939;56.522;14.950;2022-10-29T05:28:19;13.20;99.90
11764;DHT22;5939;56.522;14.950;2022-10-29T05:30:46;13.20;99.90
11764;DHT22;5939;56.522;14.950;2022-10-29T05:33:14;13.20;99.90
11764;DHT22;5939;56.522;14.950;2022-10-29T05:35:40;13.20;99.90
11764;DHT22;5939;56.522;14.950;2022-10-29T05:38:07;13.20;99.90
11764;DHT22;5939;56.522;14.950;2022-10-29T05:40:33;13.20;99.90
11764;DHT22;5939;56.522;14.950;2022-10-29T05:42:59;13.10;99.90
11764;DHT22;5939;56.522;14.950;2022-10-29T05:45:24;13.10;99.90
11764;DHT22;5939;56.522;14.950;2022-10-29T05:48:01;13.10;99.90
11764;DHT22;5939;56.522;14.950;2022-10-29T05:50:28;13.10;99.90
11764;DHT22;5939;56.522;14.950;2022-10-29T05:53:02;13.10;99.90
11764;DHT22;5939;56.522;14.950;2022-10-29T05:55:29;13.10;99.90
11764;DHT22;5939;56.522;14.950;2022-10-29T05:57:57;13.10;99.90
11764;DHT22;5939;56.522;14.950;2022-10-29T06:00:23;13.00;99.90
11764;DHT22;5939;56.522;14.950;2022-10-29T06:02:49;13.00;99.90
11764;DHT22;5939;56.522;14.950;2022-10-29T06:05:15;13.00;99.90
11764;DHT22;5939;56.522;14.950;2022-10-29T06:07:40;13.00;99.90
11764;DHT22;5939;56.522;14.950;2022-10-29T06:10:06;13.00;99.90
11764;DHT22;5939;56.522;14.950;2022-10-29T06:12:32;13.00;99.90
11764;DHT22;5939;56.522;14.950;2022-10-29T06:14:58;13.00;99.90
11764;DHT22;5939;56.522;14.950;2022-10-29T06:17:24;12.90;99.90
11764;DHT22;5939;56.522;14.950;2022-10-29T06:19:50;12.90;99.90
11764;DHT22;5939;56.522;14.950;2022-10-29T06:22:16;12.90;99.90
11764;DHT22;5939;56.522;14.950;2022-10-29T06:24:41;12.90;99.90
11764;DHT22;5939;56.522;14.950;2022-10-29T06:27:07;12.90;99.90
11764;DHT22;5939;56.522;14.950;2022-10-29T06:29:32;12.90;99.90
11764;DHT22;5939;56.522;14.950;2022-10-29T06:31:58;12.80;99.90
11764;DHT22;5939;56.522;14.950;2022-10-29T06:34:23;12.90;99.90
11764;DHT22;5939;56.522;14.950;2022-10-29T06:36:49;12.80;99.90
11764;DHT22;5939;56.522;14.950;2022-10-29T06:39:15;12.80;99.90
11764;DHT22;5939;56.522;14.950;2022-10-29T06:41:40;12.80;99.90
11764;DHT22;5939;56.522;14.950;2022-10-29T06:44:06;12.80;99.90
11764;DHT22;5939;56.522;14.950;2022-10-29T06:46:31;12.80;99.90
11764;DHT22;5939;56.522;14.950;2022-10-29T06:48:59;12.80;99.90
11764;DHT22;5939;56.522;14.950;2022-10-29T06:51:26;12.80;99.90
11764;DHT22;5939;56.522;14.950;2022-10-29T06:53:52;12.70;99.90
11764;DHT22;5939;56.522;14.950;2022-10-29T06:56:19;12.70;99.90
11764;DHT22;5939;56.522;14.950;2022-10-29T06:58:45;12.70;99.90
11764;DHT22;5939;56.522;14.950;2022-10-29T07:01:10;12.70;99.90
11764;DHT22;5939;56.522;14.950;2022-10-29T07:03:36;12.70;99.90
11764;DHT22;5939;56.522;14.950;2022-10-29T07:06:01;12.70;99.90
11764;DHT22;5939;56.522;14.950;2022-10-29T07:08:27;12.70;99.90
11764;DHT22;5939;56.522;14.950;2022-10-29T07:10:55;12.70;99.90
11764;DHT22;5939;56.522;14.950;2022-10-29T07:13:20;12.70;99.90
11764;DHT22;5939;56.522;14.950;2022-10-29T07:15:46;12.60;99.90
11764;DHT22;5939;56.522;14.950;2022-10-29T07:18:13;12.60;99.90
11764;DHT22;5939;56.522;14.950;2022-10-29T07:20:41;12.60;99.90
11764;DHT22;5939;56.522;14.950;2022-10-29T07:23:08;12.60;99.90
11764;DHT22;5939;56.522;14.950;2022-10-29T07:25:35;12.60;99.90
11764;DHT22;5939;56.522;14.950;2022-10-29T07:28:15;13.40;99.90
11764;DHT22;5939;56.522;14.950;2022-10-29T07:30:42;12.60;99.90
11764;DHT22;5939;56.522;14.950;2022-10-29T07:33:08;12.60;99.90
11764;DHT22;5939;56.522;14.950;2022-10-29T07:35:34;12.60;99.90
11764;DHT22;5939;56.522;14.950;2022-10-29T07:38:01;12.60;99.90
11764;DHT22;5939;56.522;14.950;2022-10-29T07:40:27;12.60;99.90
11764;DHT22;5939;56.522;14.950;2022-10-29T07:42:53;12.50;99.90
11764;DHT22;5939;56.522;14.950;2022-10-29T07:45:19;12.60;99.90
11764;DHT22;5939;56.522;14.950;2022-10-29T07:47:45;12.50;99.90
11764;DHT22;5939;56.522;14.950;2022-10-29T07:50:11;12.50;99.90
11764;DHT22;5939;56.522;14.950;2022-10-29T07:52:38;12.50;99.90
11764;DHT22;5939;56.522;14.950;2022-10-29T07:55:04;12.50;99.90
11764;DHT22;5939;56.522;14.950;2022-10-29T07:57:30;12.50;99.90
11764;DHT22;5939;56.522;14.950;2022-10-29T07:59:55;12.50;99.90
11764;DHT22;5939;56.522;14.950;2022-10-29T08:02:21;12.50;99.90
11764;DHT22;5939;56.522;14.950;2022-10-29T08:04:46;12.50;99.90
11764;DHT22;5939;56.522;14.950;2022-10-29T08:07:12;12.50;99.90
11764;DHT22;5939;56.522;14.950;2022-10-29T08:09:38;12.50;99.90
11764;DHT22;5939;56.522;14.950;2022-10-29T08:12:04;12.50;99.90
11764;DHT22;5939;56.522;14.950;2022-10-29T08:14:31;12.50;99.90
11764;DHT22;5939;56.522;14.950;2022-10-29T08:16:57;12.50;99.90
11764;DHT22;5939;56.522;14.950;2022-10-29T08:19:22;12.50;99.90
11764;DHT22;5939;56.522;14.950;2022-10-29T08:21:48;12.50;99.90
11764;DHT22;5939;56.522;14.950;2022-10-29T08:24:13;12.50;99.90
11764;DHT22;5939;56.522;14.950;2022-10-29T08:26:40;12.50;99.90
11764;DHT22;5939;56.522;14.950;2022-10-29T08:29:06;12.50;99.90
11764;DHT22;5939;56.522;14.950;2022-10-29T08:31:32;12.50;99.90
11764;DHT22;5939;56.522;14.950;2022-10-29T08:33:58;12.50;99.90
11764;DHT22;5939;56.522;14.950;2022-10-29T08:36:23;12.50;99.90
11764;DHT22;5939;56.522;14.950;2022-10-29T08:38:49;12.50;99.90
11764;DHT22;5939;56.522;14.950;2022-10-29T08:41:44;12.50;99.90
11764;DHT22;5939;56.522;14.950;2022-10-29T08:46:48;12.50;99.90
11764;DHT22;5939;56.522;14.950;2022-10-29T08:49:20;12.40;99.90
11764;DHT22;5939;56.522;14.950;2022-10-29T08:52:24;12.40;99.90
11764;DHT22;5939;56.522;14.950;2022-10-29T08:55:15;12.40;99.90
11764;DHT22;5939;56.522;14.950;2022-10-29T08:57:50;12.50;99.90
11764;DHT22;5939;56.522;14.950;2022-10-29T09:00:20;12.40;99.90
11764;DHT22;5939;56.522;14.950;2022-10-29T09:02:46;12.50;99.90
11764;DHT22;5939;56.522;14.950;2022-10-29T09:05:13;12.50;99.90
11764;DHT22;5939;56.522;14.950;2022-10-29T09:08:17;12.50;99.90
11764;DHT22;5939;56.522;14.950;2022-10-29T09:10:39;12.50;99.90
11764;DHT22;5939;56.522;14.950;2022-10-29T09:25:10;12.50;99.90
11764;DHT22;5939;56.522;14.950;2022-10-29T09:33:33;12.50;99.90
11764;DHT22;5939;56.522;14.950;2022-10-29T09:35:59;12.50;99.90
11764;DHT22;5939;56.522;14.950;2022-10-29T09:38:31;12.50;99.90
11764;DHT22;5939;56.522;14.950;2022-10-29T09:41:00;12.50;99.90
11764;DHT22;5939;56.522;14.950;2022-10-29T09:43:50;12.50;99.90
11764;DHT22;5939;56.522;14.950;2022-10-29T09:51:57;12.50;99.90
11764;DHT22;5939;56.522;14.950;2022-10-29T09:54:28;12.50;99.90
11764;DHT22;5939;56.522;14.950;2022-10-29T09:56:54;12.50;99.90
11764;DHT22;5939;56.522;14.950;2022-10-29T09:59:43;12.50;99.90
11764;DHT22;5939;56.522;14.950;2022-10-29T10:02:27;12.50;99.90
11764;DHT22;5939;56.522;14.950;2022-10-29T10:04:57;12.50;99.90
11764;DHT22;5939;56.522;14.950;2022-10-29T10:07:24;12.50;99.90
11764;DHT22;5939;56.522;14.950;2022-10-29T10:09:58;12.50;99.90
11764;DHT22;5939;56.522;14.950;2022-10-29T10:12:26;12.50;99.90
11764;DHT22;5939;56.522;14.950;2022-10-29T10:15:05;12.60;99.90
11764;DHT22;5939;56.522;14.950;2022-10-29T10:18:01;12.60;99.90
11764;DHT22;5939;56.522;14.950;2022-10-29T10:23:20;12.60;99.90
11764;DHT22;5939;56.522;14.950;2022-10-29T10:25:46;12.60;99.90
11764;DHT22;5939;56.522;14.950;2022-10-29T10:28:23;12.60;99.90
11764;DHT22;5939;56.522;14.950;2022-10-29T10:31:13;12.60;99.90
11764;DHT22;5939;56.522;14.950;2022-10-29T10:33:50;12.70;99.90
11764;DHT22;5939;56.522;14.950;2022-10-29T10:36:18;12.70;99.90
11764;DHT22;5939;56.522;14.950;2022-10-29T10:38:56;12.70;99.90
11764;DHT22;5939;56.522;14.950;2022-10-29T10:41:26;12.70;99.90
11764;DHT22;5939;56.522;14.950;2022-10-29T10:43:58;12.70;99.90
11764;DHT22;5939;56.522;14.950;2022-10-29T10:46:34;12.70;99.90
11764;DHT22;5939;56.522;14.950;2022-10-29T10:49:05;12.70;99.90
11764;DHT22;5939;56.522;14.950;2022-10-29T10:51:52;12.70;99.90
11764;DHT22;5939;56.522;14.950;2022-10-29T10:54:33;12.80;99.90
11764;DHT22;5939;56.522;14.950;2022-10-29T10:59:48;12.80;99.90
11764;DHT22;5939;56.522;14.950;2022-10-29T11:08:02;12.80;99.90
11764;DHT22;5939;56.522;14.950;2022-10-29T11:11:01;12.80;99.90
11764;DHT22;5939;56.522;14.950;2022-10-29T11:13:32;12.90;99.90
11764;DHT22;5939;56.522;14.950;2022-10-29T11:19:06;12.90;99.90
11764;DHT22;5939;56.522;14.950;2022-10-29T11:24:25;12.90;99.90
11764;DHT22;5939;56.522;14.950;2022-10-29T11:26:55;12.90;99.90
11764;DHT22;5939;56.522;14.950;2022-10-29T11:29:37;13.00;99.90
11764;DHT22;5939;56.522;14.950;2022-10-29T11:32:19;13.00;99.90
11764;DHT22;5939;56.522;14.950;2022-10-29T11:42:55;13.00;99.90
11764;DHT22;5939;56.522;14.950;2022-10-29T11:45:44;13.10;99.90
11764;DHT22;5939;56.522;14.950;2022-10-29T11:57:22;13.10;99.90
11764;DHT22;5939;56.522;14.950;2022-10-29T12:00:09;13.10;99.90
11764;DHT22;5939;56.522;14.950;2022-10-29T12:05:39;13.20;99.90
11764;DHT22;5939;56.522;14.950;2022-10-29T12:11:12;13.20;99.90
11764;DHT22;5939;56.522;14.950;2022-10-29T12:16:42;13.20;99.90
11764;DHT22;5939;56.522;14.950;2022-10-29T12:19:34;13.20;99.90
11764;DHT22;5939;56.522;14.950;2022-10-29T12:22:13;13.20;99.90
11764;DHT22;5939;56.522;14.950;2022-10-29T12:24:52;13.20;99.90
11764;DHT22;5939;56.522;14.950;2022-10-29T12:27:49;13.20;99.90
11764;DHT22;5939;56.522;14.950;2022-10-29T12:30:17;13.20;99.90
11764;DHT22;5939;56.522;14.950;2022-10-29T12:38:35;13.30;99.90
11764;DHT22;5939;56.522;14.950;2022-10-29T12:41:08;13.30;99.90
11764;DHT22;5939;56.522;14.950;2022-10-29T12:43:38;13.30;99.90
11764;DHT22;5939;56.522;14.950;2022-10-29T12:46:32;13.30;99.90
11764;DHT22;5939;56.522;14.950;2022-10-29T12:51:54;13.30;99.90
11764;DHT22;5939;56.522;14.950;2022-10-29T12:56:52;13.30;99.90
11764;DHT22;5939;56.522;14.950;2022-10-29T13:01:53;13.40;99.90
11764;DHT22;5939;56.522;14.950;2022-10-29T13:04:32;13.40;99.90
11764;DHT22;5939;56.522;14.950;2022-10-29T13:09:30;13.40;99.90
11764;DHT22;5939;56.522;14.950;2022-10-29T13:11:59;13.40;99.90
11764;DHT22;5939;56.522;14.950;2022-10-29T13:14:47;13.40;99.90
11764;DHT22;5939;56.522;14.950;2022-10-29T13:17:30;13.40;99.90
11764;DHT22;5939;56.522;14.950;2022-10-29T13:22:56;13.40;99.90
11764;DHT22;5939;56.522;14.950;2022-10-29T13:25:40;13.40;99.90
11764;DHT22;5939;56.522;14.950;2022-10-29T13:30:32;13.40;99.90
11764;DHT22;5939;56.522;14.950;2022-10-29T13:32:58;13.40;99.90
11764;DHT22;5939;56.522;14.950;2022-10-29T13:37:54;13.40;99.90
11764;DHT22;5939;56.522;14.950;2022-10-29T13:43:11;13.50;99.90
11764;DHT22;5939;56.522;14.950;2022-10-29T13:45:41;13.50;99.90
11764;DHT22;5939;56.522;14.950;2022-10-29T13:50:50;13.40;99.90
11764;DHT22;5939;56.522;14.950;2022-10-29T13:53:21;13.40;99.90
11764;DHT22;5939;56.522;14.950;2022-10-29T13:55:48;13.50;99.90
11764;DHT22;5939;56.522;14.950;2022-10-29T13:58:20;13.40;99.90
11764;DHT22;5939;56.522;14.950;2022-10-29T14:00:50;13.50;99.90
11764;DHT22;5939;56.522;14.950;2022-10-29T14:03:37;13.50;99.90
11764;DHT22;5939;56.522;14.950;2022-10-29T14:06:13;13.50;99.90
11764;DHT22;5939;56.522;14.950;2022-10-29T14:08:48;13.50;99.90
11764;DHT22;5939;56.522;14.950;2022-10-29T14:11:29;13.50;99.90
11764;DHT22;5939;56.522;14.950;2022-10-29T14:13:59;13.50;99.90
11764;DHT22;5939;56.522;14.950;2022-10-29T14:16:30;13.50;99.90
11764;DHT22;5939;56.522;14.950;2022-10-29T14:19:20;13.50;99.90
11764;DHT22;5939;56.522;14.950;2022-10-29T14:21:46;13.40;99.90
11764;DHT22;5939;56.522;14.950;2022-10-29T14:24:14;13.40;99.90
11764;DHT22;5939;56.522;14.950;2022-10-29T14:26:42;13.40;99.90
11764;DHT22;5939;56.522;14.950;2022-10-29T14:29:21;13.50;99.90
11764;DHT22;5939;56.522;14.950;2022-10-29T14:32:36;13.50;99.90
11764;DHT22;5939;56.522;14.950;2022-10-29T14:34:33;13.50;99.90
11764;DHT22;5939;56.522;14.950;2022-10-29T14:37:03;13.40;99.90
11764;DHT22;5939;56.522;14.950;2022-10-29T14:39:41;13.50;99.90
11764;DHT22;5939;56.522;14.950;2022-10-29T14:42:17;13.50;99.90
11764;DHT22;5939;56.522;14.950;2022-10-29T14:44:50;13.50;99.90
11764;DHT22;5939;56.522;14.950;2022-10-29T14:47:36;13.40;99.90
11764;DHT22;5939;56.522;14.950;2022-10-29T14:50:05;13.40;99.90
11764;DHT22;5939;56.522;14.950;2022-10-29T14:52:41;13.40;99.90
11764;DHT22;5939;56.522;14.950;2022-10-29T14:55:22;13.40;99.90
11764;DHT22;5939;56.522;14.950;2022-10-29T14:58:14;13.40;99.90
11764;DHT22;5939;56.522;14.950;2022-10-29T15:00:52;13.40;99.90
11764;DHT22;5939;56.522;14.950;2022-10-29T15:03:21;13.40;99.90
11764;DHT22;5939;56.522;14.950;2022-10-29T15:05:48;13.40;99.90
11764;DHT22;5939;56.522;14.950;2022-10-29T15:08:17;13.40;99.90
11764;DHT22;5939;56.522;14.950;2022-10-29T15:10:49;13.40;99.90
11764;DHT22;5939;56.522;14.950;2022-10-29T15:16:06;13.40;99.90
11764;DHT22;5939;56.522;14.950;2022-10-29T15:18:34;13.40;99.90
11764;DHT22;5939;56.522;14.950;2022-10-29T15:21:00;13.30;99.90
11764;DHT22;5939;56.522;14.950;2022-10-29T15:23:29;13.40;99.90
11764;DHT22;5939;56.522;14.950;2022-10-29T15:26:04;13.30;99.90
11764;DHT22;5939;56.522;14.950;2022-10-29T15:28:43;13.30;99.90
11764;DHT22;5939;56.522;14.950;2022-10-29T15:31:44;13.30;99.90
11764;DHT22;5939;56.522;14.950;2022-10-29T15:34:19;13.30;99.90
11764;DHT22;5939;56.522;14.950;2022-10-29T15:36:51;13.30;99.90
11764;DHT22;5939;56.522;14.950;2022-10-29T15:41:51;13.30;99.90
11764;DHT22;5939;56.522;14.950;2022-10-29T15:47:00;13.30;99.90
11764;DHT22;5939;56.522;14.950;2022-10-29T15:49:27;13.30;99.90
11764;DHT22;5939;56.522;14.950;2022-10-29T15:51:57;13.30;99.90
11764;DHT22;5939;56.522;14.950;2022-10-29T15:54:24;13.20;99.90
11764;DHT22;5939;56.522;14.950;2022-10-29T15:56:50;13.20;99.90
11764;DHT22;5939;56.522;14.950;2022-10-29T15:59:21;13.20;99.90
11764;DHT22;5939;56.522;14.950;2022-10-29T16:01:47;13.20;99.90
11764;DHT22;5939;56.522;14.950;2022-10-29T16:04:13;13.20;99.90
11764;DHT22;5939;56.522;14.950;2022-10-29T16:06:38;13.20;99.90
11764;DHT22;5939;56.522;14.950;2022-10-29T16:09:04;13.20;99.90
11764;DHT22;5939;56.522;14.950;2022-10-29T16:11:30;13.20;99.90
11764;DHT22;5939;56.522;14.950;2022-10-29T16:13:57;13.20;99.90
11764;DHT22;5939;56.522;14.950;2022-10-29T16:16:29;13.20;99.90
11764;DHT22;5939;56.522;14.950;2022-10-29T16:18:55;13.20;99.90
11764;DHT22;5939;56.522;14.950;2022-10-29T16:21:22;13.20;99.90
11764;DHT22;5939;56.522;14.950;2022-10-29T16:23:49;13.10;99.90
11764;DHT22;5939;56.522;14.950;2022-10-29T16:26:20;13.10;99.90
11764;DHT22;5939;56.522;14.950;2022-10-29T16:28:46;13.10;99.90
11764;DHT22;5939;56.522;14.950;2022-10-29T16:31:28;13.10;99.90
11764;DHT22;5939;56.522;14.950;2022-10-29T16:33:56;13.10;99.90
11764;DHT22;5939;56.522;14.950;2022-10-29T16:36:23;13.10;99.90
11764;DHT22;5939;56.522;14.950;2022-10-29T16:38:49;13.10;99.90
11764;DHT22;5939;56.522;14.950;2022-10-29T16:41:17;13.10;99.90
11764;DHT22;5939;56.522;14.950;2022-10-29T16:43:43;13.10;99.90
11764;DHT22;5939;56.522;14.950;2022-10-29T16:46:09;13.10;99.90
11764;DHT22;5939;56.522;14.950;2022-10-29T16:48:35;13.10;99.90
11764;DHT22;5939;56.522;14.950;2022-10-29T16:51:00;13.10;99.90
11764;DHT22;5939;56.522;14.950;2022-10-29T16:53:26;13.10;99.90
11764;DHT22;5939;56.522;14.950;2022-10-29T16:55:52;13.10;99.90
11764;DHT22;5939;56.522;14.950;2022-10-29T16:58:18;13.10;99.90
11764;DHT22;5939;56.522;14.950;2022-10-29T17:00:44;13.10;99.90
11764;DHT22;5939;56.522;14.950;2022-10-29T17:03:12;13.00;99.90
11764;DHT22;5939;56.522;14.950;2022-10-29T17:05:43;13.00;99.90
11764;DHT22;5939;56.522;14.950;2022-10-29T17:08:09;13.00;99.90
11764;DHT22;5939;56.522;14.950;2022-10-29T17:10:35;13.00;99.90
11764;DHT22;5939;56.522;14.950;2022-10-29T17:13:01;13.00;99.90
11764;DHT22;5939;56.522;14.950;2022-10-29T17:15:27;13.00;99.90
11764;DHT22;5939;56.522;14.950;2022-10-29T17:17:53;13.00;99.90
11764;DHT22;5939;56.522;14.950;2022-10-29T17:20:19;13.00;99.90
11764;DHT22;5939;56.522;14.950;2022-10-29T17:22:44;13.00;99.90
11764;DHT22;5939;56.522;14.950;2022-10-29T17:25:10;13.00;99.90
11764;DHT22;5939;56.522;14.950;2022-10-29T17:27:40;13.00;99.90
11764;DHT22;5939;56.522;14.950;2022-10-29T17:30:07;13.00;99.90
11764;DHT22;5939;56.522;14.950;2022-10-29T17:32:33;13.00;99.90
11764;DHT22;5939;56.522;14.950;2022-10-29T17:34:59;13.00;99.90
11764;DHT22;5939;56.522;14.950;2022-10-29T17:37:25;13.00;99.90
11764;DHT22;5939;56.522;14.950;2022-10-29T17:39:51;13.00;99.90
11764;DHT22;5939;56.522;14.950;2022-10-29T17:42:17;13.00;99.90
11764;DHT22;5939;56.522;14.950;2022-10-29T17:44:42;13.00;99.90
11764;DHT22;5939;56.522;14.950;2022-10-29T17:47:08;13.00;99.90
11764;DHT22;5939;56.522;14.950;2022-10-29T17:49:36;13.00;99.90
11764;DHT22;5939;56.522;14.950;2022-10-29T17:52:02;13.00;99.90
11764;DHT22;5939;56.522;14.950;2022-10-29T17:54:27;13.00;99.90
11764;DHT22;5939;56.522;14.950;2022-10-29T17:56:53;12.90;99.90
11764;DHT22;5939;56.522;14.950;2022-10-29T17:59:19;13.00;99.90
11764;DHT22;5939;56.522;14.950;2022-10-29T18:01:44;12.90;99.90
11764;DHT22;5939;56.522;14.950;2022-10-29T18:04:10;12.90;99.90
11764;DHT22;5939;56.522;14.950;2022-10-29T18:06:36;12.90;99.90